Portada
METAR-TAF:

METAR-TAF

Aeropuertos :

El Aaiún, Marruecos

Aeropuerto Internacional Hassan I

latitud: 27-10N, longitud: 013-12-59W, altitud: 6 m

Observación

El informe se hizo hace 1 hora y 7 minutos, a las 08:00 UTC
Viento 12 kt del norte-noreste
Temperatura 18°C
Humedad 88%
Presión 1017 hPa
Visibilidad: 8000 m
Nubes dispersas a una altura de 1700 ft

METAR: GMML 170800Z 02012KT 8000 SCT017 18/16 Q1017 NOSIG

Hora: 09:07 (09:07 UTC)

Pronóstico

El informe se hizo hace 4 horas y 7 minutos, a las 05:00 UTC
Pronóstico válido del 17 a las 06 UTC al 18 a las 12 UTC
Viento 13 kt del norte
Visibilidad 10 km o más
Cielo nuboso a una altura de 2000 ft

TAF: GMML 170500Z 1706/1812 01013KT 9999 BKN020

Observaciones y pronósticos meteorológicos de más de 4000 aeropuertos (mensajes METAR y TAF).

Los puntos amarillos y rojos representan las estaciones disponibles.

Ponga el ratón en el punto deseado para ver el nombre de la estación.

Haga clic para ver las observaciones y los pronósticos meteorológicos.

Para cambiar el mapa : haga clic en los botones verdes con una cruz de color negro para hacer un zoom, en el botón verde con un guión para alejar o en las flechas verdes para mapas adyacentes.


METAR-TAF: